createdAt,value
2023-05-13T15:16:26.212Z,15.14
2023-05-13T15:18:53.019Z,15.54
2023-05-13T15:21:19.648Z,15.66
2023-05-13T15:23:46.317Z,15.68
2023-05-13T15:26:13.072Z,15.51
2023-05-13T15:28:39.728Z,15.37
2023-05-13T15:31:06.425Z,15.44
2023-05-13T15:33:33.089Z,15.26
2023-05-13T15:35:59.901Z,15.18
2023-05-13T15:38:27.225Z,15.16
2023-05-13T15:40:53.862Z,15.02
2023-05-13T15:43:20.525Z,15.15
2023-05-13T15:45:47.166Z,15.18
2023-05-13T15:48:14.038Z,15.29
2023-05-13T15:50:40.695Z,15.24
2023-05-13T15:53:07.376Z,15.22
2023-05-13T15:55:34.306Z,15.14
2023-05-13T15:58:00.938Z,14.99
2023-05-13T16:00:27.526Z,14.85
2023-05-13T16:02:54.395Z,14.82
2023-05-13T16:05:20.999Z,14.64
2023-05-13T16:07:47.594Z,14.61
2023-05-13T16:10:15.638Z,14.62
2023-05-13T16:12:43.048Z,14.59
2023-05-13T16:15:10.211Z,14.55
2023-05-13T16:17:36.952Z,14.47
2023-05-13T16:20:03.869Z,14.43
2023-05-13T16:22:34.383Z,14.49
2023-05-13T16:25:01.518Z,14.51
2023-05-13T16:27:31.906Z,14.55
2023-05-13T16:29:58.962Z,14.58
2023-05-13T16:32:25.627Z,14.69
2023-05-13T16:34:52.552Z,14.77
2023-05-13T16:37:19.211Z,14.75
2023-05-13T16:39:45.932Z,14.79
2023-05-13T16:42:12.689Z,14.86
2023-05-13T16:44:39.321Z,14.93
2023-05-13T16:47:06.830Z,14.97
2023-05-13T16:49:33.453Z,15.04
2023-05-13T16:52:00.310Z,15.14
2023-05-13T16:54:26.886Z,15.23
2023-05-13T16:56:53.502Z,15.20
2023-05-13T16:59:23.766Z,15.20
2023-05-13T17:01:50.563Z,15.16
2023-05-13T17:04:18.131Z,15.47
2023-05-13T17:06:44.756Z,15.88
2023-05-13T17:09:11.572Z,15.59
2023-05-13T17:11:38.299Z,15.14
2023-05-13T17:14:05.232Z,15.08
2023-05-13T17:16:32.048Z,15.00
2023-05-13T17:18:59.492Z,14.98
2023-05-13T17:21:26.385Z,14.99
2023-05-13T17:23:53.057Z,14.95
2023-05-13T17:26:20.028Z,14.88
2023-05-13T17:28:46.653Z,14.87
2023-05-13T17:31:13.283Z,14.81
2023-05-13T17:33:39.989Z,14.75
2023-05-13T17:36:06.756Z,14.75
2023-05-13T17:38:33.375Z,14.73
2023-05-13T17:40:59.964Z,14.70
2023-05-13T17:43:27.179Z,14.70
2023-05-13T17:45:53.946Z,14.65
2023-05-13T17:48:20.672Z,14.63
2023-05-13T17:50:47.357Z,14.55
2023-05-13T17:53:14.024Z,14.53
2023-05-13T17:55:40.737Z,14.44
2023-05-13T17:58:07.424Z,14.43
2023-05-13T18:00:34.085Z,14.45
2023-05-13T18:03:00.771Z,14.50
2023-05-13T18:05:27.600Z,14.52
2023-05-13T18:07:54.246Z,14.49
2023-05-13T18:10:21.239Z,14.54
2023-05-13T18:12:48.153Z,14.58
2023-05-13T18:15:14.822Z,14.30
2023-05-13T18:17:41.534Z,14.32
2023-05-13T18:20:08.522Z,14.40
2023-05-13T18:22:35.207Z,14.43
2023-05-13T18:25:02.931Z,14.37
2023-05-13T18:27:29.552Z,14.35
2023-05-13T18:29:56.236Z,14.31
2023-05-13T18:32:23.063Z,14.27
2023-05-13T18:34:49.783Z,14.17
2023-05-13T18:37:16.373Z,14.04
2023-05-13T18:39:45.906Z,13.92
2023-05-13T18:42:12.664Z,13.78
2023-05-13T18:44:39.248Z,13.76
2023-05-13T18:47:06.369Z,13.70
2023-05-13T18:49:33.129Z,13.61
2023-05-13T18:51:59.781Z,13.52
2023-05-13T18:54:29.538Z,13.43
2023-05-13T18:56:56.432Z,13.34
2023-05-13T18:59:23.228Z,13.31
2023-05-13T19:01:50.052Z,13.37
2023-05-13T19:04:17.551Z,13.17
2023-05-13T19:06:44.822Z,13.18
2023-05-13T19:09:11.459Z,13.21
2023-05-13T19:11:38.040Z,13.17
2023-05-13T19:14:04.637Z,13.10
2023-05-13T19:16:31.233Z,13.04
2023-05-13T19:18:57.997Z,12.99
2023-05-13T19:21:24.724Z,13.02
2023-05-13T19:23:51.385Z,13.04
2023-05-13T19:26:18.059Z,13.08
2023-05-13T19:28:45.805Z,13.07
2023-05-13T19:31:12.501Z,13.01
2023-05-13T19:33:39.181Z,12.98
2023-05-13T19:36:06.644Z,12.91
2023-05-13T19:38:34.043Z,12.81
2023-05-13T19:41:00.700Z,12.73
2023-05-13T19:43:27.620Z,12.70
2023-05-13T19:45:56.561Z,12.70
2023-05-13T19:48:23.352Z,12.69
2023-05-13T19:50:53.555Z,12.69
2023-05-13T19:53:21.665Z,12.64
2023-05-13T19:55:48.306Z,12.56
2023-05-13T19:58:14.881Z,12.70
2023-05-13T20:00:44.210Z,12.73
2023-05-13T20:03:11.191Z,12.45
2023-05-13T20:05:39.642Z,12.37
2023-05-13T20:08:06.489Z,12.32
2023-05-13T20:10:35.612Z,12.32
2023-05-13T20:13:06.399Z,12.27
2023-05-13T20:15:33.437Z,12.26
2023-05-13T20:18:00.129Z,12.27
2023-05-13T20:20:26.819Z,12.34
2023-05-13T20:22:53.488Z,12.41
2023-05-13T20:25:20.314Z,12.45
2023-05-13T20:27:46.979Z,12.53
2023-05-13T20:30:13.888Z,12.59
2023-05-13T20:32:40.558Z,12.67
2023-05-13T20:35:07.771Z,12.74
2023-05-13T20:37:34.511Z,12.83
2023-05-13T20:40:01.490Z,12.89
2023-05-13T20:42:28.128Z,12.93
2023-05-13T20:44:54.735Z,12.97
2023-05-13T20:47:21.683Z,12.87
2023-05-13T20:49:48.381Z,12.91
2023-05-13T20:52:15.086Z,12.95
2023-05-13T20:54:41.778Z,12.91
2023-05-13T20:57:08.383Z,12.84
2023-05-13T20:59:35.084Z,12.90
2023-05-13T21:02:01.691Z,12.99
2023-05-13T21:04:28.518Z,13.02
2023-05-13T21:06:55.118Z,13.02
2023-05-13T21:09:21.784Z,13.01
2023-05-13T21:11:48.461Z,12.95
2023-05-13T21:14:15.177Z,12.97
2023-05-13T21:16:41.796Z,12.81
2023-05-13T21:19:08.460Z,13.08
2023-05-13T21:21:35.067Z,12.76
2023-05-13T21:24:01.636Z,12.52
2023-05-13T21:26:28.244Z,12.56
2023-05-13T21:28:54.884Z,12.57
2023-05-13T21:31:21.521Z,12.57
2023-05-13T21:33:49.157Z,12.64
2023-05-13T21:36:16.260Z,12.69
2023-05-13T21:38:42.854Z,12.64
2023-05-13T21:41:09.444Z,12.70
2023-05-13T21:43:36.115Z,12.93
2023-05-13T21:46:03.486Z,13.01
2023-05-13T21:48:30.111Z,12.81
2023-05-13T21:50:56.701Z,12.98
2023-05-13T21:53:23.483Z,12.79
2023-05-13T21:55:50.683Z,12.70
2023-05-13T21:58:17.711Z,12.72
2023-05-13T22:00:44.295Z,12.65
2023-05-13T22:03:10.995Z,12.85
2023-05-13T22:05:43.770Z,12.59
2023-05-13T22:08:10.935Z,12.36
2023-05-13T22:10:37.679Z,12.68
2023-05-13T22:13:04.247Z,12.46
2023-05-13T22:15:31.123Z,12.59
2023-05-13T22:17:57.874Z,12.45
2023-05-13T22:20:24.889Z,12.24
2023-05-13T22:22:51.844Z,12.23
2023-05-13T22:25:18.541Z,12.23
2023-05-13T22:27:46.593Z,12.19
2023-05-13T22:30:13.212Z,12.20
2023-05-13T22:32:40.322Z,12.20
2023-05-13T22:35:07.526Z,12.03
2023-05-13T22:37:34.467Z,12.15
2023-05-13T22:40:01.273Z,12.13
2023-05-13T22:42:28.079Z,12.20
2023-05-13T22:44:54.772Z,12.09
2023-05-13T22:47:21.391Z,12.21
2023-05-13T22:49:48.012Z,12.45
2023-05-13T22:52:14.611Z,12.55
2023-05-13T22:54:41.677Z,12.63
2023-05-13T22:57:08.283Z,12.61
2023-05-13T22:59:35.449Z,12.63
2023-05-13T23:02:02.166Z,12.65
2023-05-13T23:04:29.075Z,12.67
2023-05-13T23:06:55.789Z,12.37
2023-05-13T23:09:22.380Z,12.22
2023-05-13T23:11:49.017Z,12.25
2023-05-13T23:14:15.587Z,12.26
2023-05-13T23:16:42.266Z,12.23
2023-05-13T23:19:08.993Z,12.38
2023-05-13T23:21:36.105Z,12.68
2023-05-13T23:24:02.702Z,12.76
2023-05-13T23:26:29.271Z,12.30
2023-05-13T23:28:55.912Z,12.19
2023-05-13T23:31:22.549Z,12.20
2023-05-13T23:33:49.166Z,11.91
2023-05-13T23:36:16.253Z,11.97
2023-05-13T23:38:42.833Z,12.06
2023-05-13T23:41:09.414Z,11.96
2023-05-13T23:43:35.986Z,11.98
2023-05-13T23:46:02.634Z,11.97
2023-05-13T23:48:29.270Z,12.06
2023-05-13T23:50:56.024Z,12.12
2023-05-13T23:53:22.618Z,12.21
2023-05-13T23:55:49.191Z,12.11
2023-05-13T23:58:15.918Z,12.51
